createdAt,value
2023-03-22T00:02:26.178Z,7.27
2023-03-22T00:04:54.790Z,7.67
2023-03-22T00:07:23.099Z,6.30
2023-03-22T00:09:51.389Z,7.77
2023-03-22T00:12:19.851Z,9.00
2023-03-22T00:14:49.885Z,7.70
2023-03-22T00:17:18.440Z,9.80
2023-03-22T00:19:47.445Z,7.17
2023-03-22T00:22:16.246Z,8.77
2023-03-22T00:24:44.631Z,10.70
2023-03-22T00:27:12.872Z,11.73
2023-03-22T00:29:43.171Z,9.43
2023-03-22T00:32:12.820Z,10.57
2023-03-22T00:34:41.052Z,12.03
2023-03-22T00:37:10.448Z,9.23
2023-03-22T00:39:38.880Z,11.53
2023-03-22T00:42:07.964Z,14.27
2023-03-22T00:44:36.226Z,14.00
2023-03-22T00:47:04.534Z,14.00
2023-03-22T00:49:35.195Z,14.33
2023-03-22T00:52:03.485Z,13.10
2023-03-22T00:54:31.786Z,15.70
2023-03-22T00:57:00.075Z,14.03
2023-03-22T00:59:28.911Z,16.37
2023-03-22T01:01:59.030Z,14.03
2023-03-22T01:04:28.940Z,20.47
2023-03-22T01:07:02.137Z,14.77
2023-03-22T01:09:33.791Z,15.20
2023-03-22T01:12:03.249Z,15.23
2023-03-22T01:14:31.895Z,16.53
2023-03-22T01:17:00.279Z,14.83
2023-03-22T01:19:28.764Z,16.40
2023-03-22T01:21:57.783Z,18.80
2023-03-22T01:24:28.341Z,16.87
2023-03-22T01:26:57.098Z,24.43
2023-03-22T01:29:25.688Z,17.17
2023-03-22T01:31:54.184Z,19.57
2023-03-22T01:34:22.958Z,16.80
2023-03-22T01:36:51.798Z,17.57
2023-03-22T01:39:20.715Z,16.20
2023-03-22T01:41:54.282Z,16.43
2023-03-22T01:44:24.507Z,15.17
2023-03-22T01:46:55.785Z,14.30
2023-03-22T01:49:27.766Z,16.50
2023-03-22T01:51:59.470Z,15.47
2023-03-22T01:54:42.903Z,14.33
2023-03-22T01:57:33.435Z,13.43
2023-03-22T02:00:08.789Z,13.50
2023-03-22T02:03:16.543Z,15.43
2023-03-22T02:05:48.971Z,14.77
2023-03-22T02:08:19.343Z,14.77
2023-03-22T02:10:59.041Z,13.53
2023-03-22T02:13:48.104Z,14.13
2023-03-22T02:17:00.063Z,14.87
2023-03-22T02:19:56.703Z,12.97
2023-03-22T02:22:53.073Z,12.67
2023-03-22T02:25:54.023Z,13.33
2023-03-22T02:28:34.328Z,11.07
2023-03-22T02:31:36.026Z,14.77
2023-03-22T02:34:37.400Z,10.80
2023-03-22T02:37:59.574Z,13.57
2023-03-22T02:40:34.659Z,11.37
2023-03-22T02:43:13.931Z,10.77
2023-03-22T02:45:47.864Z,10.50
2023-03-22T02:48:22.776Z,16.80
2023-03-22T02:50:55.048Z,14.40
2023-03-22T02:53:29.175Z,8.50
2023-03-22T02:56:03.783Z,12.53
2023-03-22T02:58:37.093Z,14.27
2023-03-22T03:01:09.229Z,13.10
2023-03-22T03:03:39.671Z,10.77
2023-03-22T03:06:12.506Z,12.07
2023-03-22T03:08:41.429Z,11.03
2023-03-22T03:11:11.832Z,13.40
2023-03-22T03:13:40.209Z,11.80
2023-03-22T03:16:17.509Z,12.30
2023-03-22T03:18:52.121Z,16.00
2023-03-22T03:21:32.608Z,14.40
2023-03-22T03:24:18.659Z,11.03
2023-03-22T03:26:57.650Z,11.27
2023-03-22T03:29:34.470Z,9.73
2023-03-22T03:32:08.225Z,13.43
2023-03-22T03:34:45.555Z,9.37
2023-03-22T03:37:18.574Z,11.43
2023-03-22T03:39:54.045Z,9.33
2023-03-22T03:42:27.200Z,11.77
2023-03-22T03:44:57.397Z,9.73
2023-03-22T03:47:27.076Z,8.43
2023-03-22T03:49:55.477Z,9.97
2023-03-22T03:52:24.639Z,7.43
2023-03-22T03:54:53.589Z,9.73
2023-03-22T03:57:29.456Z,8.70
2023-03-22T03:59:57.919Z,11.17
2023-03-22T04:02:45.322Z,8.03
2023-03-22T04:05:29.773Z,8.03
2023-03-22T04:07:58.087Z,7.43
2023-03-22T04:10:26.466Z,8.90
2023-03-22T04:12:56.070Z,10.70
2023-03-22T04:15:24.370Z,10.10
2023-03-22T04:17:57.260Z,9.17
2023-03-22T04:20:29.910Z,6.73
2023-03-22T04:22:59.086Z,11.37
2023-03-22T04:25:29.917Z,5.50
2023-03-22T04:28:06.058Z,9.37
2023-03-22T04:30:36.750Z,10.00
2023-03-22T04:33:39.360Z,7.63
2023-03-22T04:36:19.751Z,5.70
2023-03-22T04:39:10.513Z,7.47
2023-03-22T04:41:39.986Z,8.57
2023-03-22T04:44:09.813Z,5.87
2023-03-22T04:46:44.006Z,6.63
2023-03-22T04:49:12.547Z,7.97
2023-03-22T04:51:42.872Z,7.63
2023-03-22T04:54:19.890Z,7.63
2023-03-22T04:56:48.309Z,7.77
2023-03-22T04:59:20.579Z,9.43
2023-03-22T05:01:51.654Z,6.33
2023-03-22T05:04:24.170Z,8.47
2023-03-22T05:06:59.405Z,5.97
2023-03-22T05:09:38.089Z,6.40
2023-03-22T05:12:06.852Z,8.60
2023-03-22T05:14:49.743Z,5.67
2023-03-22T05:17:23.303Z,6.03
2023-03-22T05:19:54.966Z,9.27
2023-03-22T05:22:23.496Z,5.63
2023-03-22T05:24:53.398Z,8.53
2023-03-22T05:27:31.514Z,5.77
2023-03-22T05:30:15.599Z,9.10
2023-03-22T05:33:03.291Z,6.83
2023-03-22T05:35:36.524Z,10.43
2023-03-22T05:38:05.728Z,9.83
2023-03-22T05:40:37.462Z,4.97
2023-03-22T05:43:06.395Z,5.93
2023-03-22T05:45:37.821Z,8.87
2023-03-22T05:48:21.412Z,9.93
2023-03-22T05:50:49.840Z,10.00
2023-03-22T05:53:18.721Z,8.53
2023-03-22T05:55:57.700Z,9.33
2023-03-22T05:58:28.993Z,8.30
2023-03-22T06:01:01.174Z,6.03
2023-03-22T06:03:52.707Z,8.23
2023-03-22T06:06:36.840Z,10.23
2023-03-22T06:09:17.708Z,9.20
2023-03-22T06:11:50.538Z,8.97
2023-03-22T06:14:19.186Z,9.20
2023-03-22T06:17:04.876Z,12.67
2023-03-22T06:19:33.357Z,10.07
2023-03-22T06:22:04.899Z,8.90
2023-03-22T06:24:35.726Z,10.00
2023-03-22T06:27:05.669Z,9.63
2023-03-22T06:29:34.412Z,8.30
2023-03-22T06:32:07.373Z,6.63
2023-03-22T06:34:35.838Z,8.83
2023-03-22T06:37:04.684Z,7.60
2023-03-22T06:39:36.129Z,5.47
2023-03-22T06:42:04.843Z,6.60
2023-03-22T06:44:33.250Z,9.63
2023-03-22T06:47:16.969Z,8.43
2023-03-22T06:49:45.225Z,6.67
2023-03-22T06:52:20.449Z,4.63
2023-03-22T06:54:48.946Z,8.43
2023-03-22T06:57:17.188Z,6.97
2023-03-22T06:59:45.414Z,6.47
2023-03-22T07:02:13.924Z,7.50
2023-03-22T07:04:49.086Z,7.57
2023-03-22T07:07:17.345Z,5.10
2023-03-22T07:09:46.317Z,6.50
2023-03-22T07:12:14.881Z,6.63
2023-03-22T07:14:43.543Z,10.43
2023-03-22T07:17:24.753Z,5.73
2023-03-22T07:19:54.581Z,7.60
2023-03-22T07:22:25.928Z,5.97
2023-03-22T07:24:59.363Z,8.80
2023-03-22T07:27:30.866Z,7.17
2023-03-22T07:30:00.023Z,8.10
2023-03-22T07:32:29.630Z,10.33
2023-03-22T07:35:12.107Z,8.73
2023-03-22T07:37:42.064Z,9.17
2023-03-22T07:40:20.034Z,8.87
2023-03-22T07:42:49.682Z,6.47
2023-03-22T07:45:25.356Z,7.80
2023-03-22T07:48:23.298Z,8.80
2023-03-22T07:51:19.291Z,9.87
2023-03-22T07:53:48.519Z,6.57
2023-03-22T07:56:16.982Z,8.33
2023-03-22T07:58:45.386Z,9.93
2023-03-22T08:01:14.350Z,8.30
2023-03-22T08:04:06.304Z,3.57
2023-03-22T08:06:58.649Z,6.70
2023-03-22T08:09:27.447Z,9.03
2023-03-22T08:11:56.938Z,7.27
2023-03-22T08:14:35.892Z,6.27
2023-03-22T08:17:07.337Z,9.03
2023-03-22T08:19:36.627Z,3.57
2023-03-22T08:22:08.641Z,6.87
2023-03-22T08:24:57.499Z,11.03
2023-03-22T08:27:32.642Z,6.00
2023-03-22T08:30:02.461Z,9.03
2023-03-22T08:32:34.967Z,5.33
2023-03-22T08:35:06.396Z,8.43
2023-03-22T08:37:36.270Z,10.67
2023-03-22T08:40:09.555Z,7.20
2023-03-22T08:42:42.387Z,6.97
2023-03-22T08:45:11.418Z,10.00
2023-03-22T08:47:49.798Z,5.53
2023-03-22T08:50:21.555Z,5.27
2023-03-22T08:53:02.733Z,8.67
2023-03-22T08:55:35.419Z,4.67
2023-03-22T08:58:24.195Z,7.33
2023-03-22T09:01:12.731Z,11.57
2023-03-22T09:03:49.359Z,7.33
2023-03-22T09:06:17.719Z,7.17
2023-03-22T09:08:52.099Z,8.63
2023-03-22T09:11:22.993Z,7.97
2023-03-22T09:13:52.888Z,7.03
2023-03-22T09:16:22.097Z,6.00
2023-03-22T09:18:51.336Z,7.13
2023-03-22T09:21:22.832Z,11.57
2023-03-22T09:23:56.103Z,7.40
2023-03-22T09:26:31.957Z,6.60
2023-03-22T09:29:01.250Z,7.57
2023-03-22T09:31:30.184Z,5.37
2023-03-22T09:34:17.899Z,7.33
2023-03-22T09:36:47.508Z,7.27
2023-03-22T09:39:20.068Z,5.57
2023-03-22T09:41:56.093Z,8.43
2023-03-22T09:44:31.405Z,6.27
2023-03-22T09:47:04.060Z,7.37
2023-03-22T09:49:52.293Z,8.47
2023-03-22T09:52:21.842Z,8.10
2023-03-22T09:54:53.045Z,7.63
2023-03-22T09:57:29.138Z,6.13
2023-03-22T10:00:02.217Z,5.57
2023-03-22T10:02:50.404Z,5.63
2023-03-22T10:05:26.325Z,9.87
2023-03-22T10:08:20.407Z,7.13
2023-03-22T10:10:52.544Z,7.43
2023-03-22T10:13:27.987Z,5.57
2023-03-22T10:15:59.638Z,4.57
2023-03-22T10:18:34.304Z,7.13
2023-03-22T10:21:04.714Z,4.37
2023-03-22T10:23:39.012Z,8.33
2023-03-22T10:26:15.154Z,8.07
2023-03-22T10:28:46.131Z,9.33
2023-03-22T10:31:17.636Z,6.80
2023-03-22T10:33:53.158Z,6.73
2023-03-22T10:36:24.141Z,6.33
2023-03-22T10:38:55.749Z,6.50
2023-03-22T10:41:26.973Z,6.67
2023-03-22T10:43:59.584Z,6.20
2023-03-22T10:46:30.390Z,8.83
2023-03-22T10:49:01.975Z,7.70
2023-03-22T10:51:35.922Z,6.17
2023-03-22T10:54:05.733Z,9.13
2023-03-22T10:56:35.404Z,5.40
2023-03-22T10:59:03.664Z,4.97
2023-03-22T11:01:34.460Z,5.43
2023-03-22T11:04:09.728Z,3.63
2023-03-22T11:06:41.046Z,5.57
2023-03-22T11:09:15.502Z,5.03
2023-03-22T11:11:53.220Z,7.80
2023-03-22T11:14:27.803Z,4.77
2023-03-22T11:16:57.888Z,6.13
2023-03-22T11:19:28.436Z,3.07
2023-03-22T11:21:57.404Z,4.23
2023-03-22T11:24:27.008Z,9.00
2023-03-22T11:27:08.629Z,3.60
2023-03-22T11:29:43.656Z,3.87
2023-03-22T11:32:23.046Z,6.70
2023-03-22T11:35:01.552Z,9.40
2023-03-22T11:37:30.571Z,5.40
2023-03-22T11:40:05.095Z,4.27
2023-03-22T11:42:36.981Z,4.93
2023-03-22T11:45:05.926Z,5.50
2023-03-22T11:47:39.173Z,5.40
2023-03-22T11:50:10.694Z,7.23
2023-03-22T11:52:40.094Z,5.27
2023-03-22T11:55:08.978Z,7.40
2023-03-22T11:57:39.015Z,4.17
2023-03-22T12:00:15.137Z,4.90
2023-03-22T12:02:49.678Z,8.13
2023-03-22T12:05:22.692Z,7.63
2023-03-22T12:07:58.893Z,7.73
2023-03-22T12:10:31.030Z,4.73
2023-03-22T12:13:03.620Z,5.27
2023-03-22T12:15:35.811Z,7.53
2023-03-22T12:18:09.220Z,6.17
2023-03-22T12:20:43.280Z,8.03
2023-03-22T12:23:16.654Z,3.50
2023-03-22T12:25:50.624Z,3.93
2023-03-22T12:28:23.962Z,5.43
2023-03-22T12:30:56.202Z,3.87
2023-03-22T12:33:27.443Z,3.77
2023-03-22T12:35:58.838Z,3.57
2023-03-22T12:38:33.996Z,5.23
2023-03-22T12:41:06.034Z,5.17
2023-03-22T12:43:48.119Z,4.43
2023-03-22T12:46:21.505Z,5.90
2023-03-22T12:48:52.720Z,5.40
2023-03-22T12:51:21.037Z,5.73
2023-03-22T12:53:53.144Z,3.40
2023-03-22T12:56:24.688Z,5.10
2023-03-22T12:58:59.309Z,3.90
2023-03-22T13:01:34.671Z,4.60
2023-03-22T13:04:31.740Z,6.00
2023-03-22T13:07:11.211Z,4.53
2023-03-22T13:09:43.435Z,5.93
2023-03-22T13:12:31.854Z,9.37
2023-03-22T13:15:04.606Z,3.60
2023-03-22T13:17:45.251Z,6.57
2023-03-22T13:20:28.792Z,3.83
2023-03-22T13:23:03.472Z,6.17
2023-03-22T13:25:36.522Z,5.17
2023-03-22T13:28:21.261Z,5.20
2023-03-22T13:30:53.569Z,6.43
2023-03-22T13:33:26.826Z,5.33
2023-03-22T13:35:57.446Z,5.97
2023-03-22T13:38:28.236Z,7.77
2023-03-22T13:41:03.760Z,4.97
2023-03-22T13:43:37.611Z,6.90
2023-03-22T13:46:28.076Z,10.87
2023-03-22T13:49:18.042Z,6.27
2023-03-22T13:51:46.414Z,6.23
2023-03-22T13:54:23.970Z,5.67
2023-03-22T13:56:56.994Z,6.90
2023-03-22T13:59:31.029Z,7.27
2023-03-22T14:02:05.705Z,7.40
2023-03-22T14:04:40.776Z,6.70
2023-03-22T14:07:16.758Z,6.73
2023-03-22T14:09:50.453Z,5.83
2023-03-22T14:12:22.419Z,6.43
2023-03-22T14:14:56.275Z,4.43
2023-03-22T14:17:35.453Z,7.37
2023-03-22T14:20:10.508Z,7.27
